Time;durP1;ratioP1;P1;durP2;ratioP2;P2;SDS_P1;SDS_P2;PMS_P1;PMS_P2;Temp;Humidity;BMP_temperature;BMP_pressure;BME280_temperature;BME280_humidity;BME280_pressure;Samples;Min_cycle;Max_cycle;Signal;HPM_P1;HPM_P2
2023/01/10 00:00:56;;;;;;;;;;;;;;;;;;5084302;28;19932;-82
2023/01/10 00:03:24;;;;;;;;;;;;;;;;;;5089566;28;20646;-84
2023/01/10 00:05:56;;;;;;;;;;;;;;;;;;5082860;28;20300;-84
2023/01/10 00:08:24;;;;;;;;;;;;;;;;;;5080310;28;19925;-83
2023/01/10 00:10:56;;;;;;;;;;;;;;;;;;5080237;28;19925;-84
2023/01/10 00:13:28;;;;;;;;;;;;;;;;;;5088192;28;19939;-85
2023/01/10 00:16:00;;;;;;;;;;;;;;;;;;5081963;28;20003;-85
2023/01/10 00:18:33;;;;;;;;;;;;;;;;;;5083357;28;19924;-84
2023/01/10 00:21:08;;;;;;;;;;;;;;;;;;5086438;28;19924;-84
2023/01/10 00:23:35;;;;;;;;;;;;;;;;;;5083309;28;19935;-84
2023/01/10 00:26:08;;;;;;;;;;;;;;;;;;5083441;28;19924;-83
2023/01/10 00:28:35;;;;;;;;;;;;;;;;;;5083277;28;19924;-84
2023/01/10 00:31:10;;;;;;;;;;;;;;;;;;5072496;28;19947;-85
2023/01/10 00:33:37;;;;;;;;;;;;;;;;;;5072242;28;19932;-83
2023/01/10 00:36:05;;;;;;;;;;;;;;;;;;5077239;28;19928;-84
2023/01/10 00:38:33;;;;;;;;;;;;;;;;;;5083678;28;20297;-84
2023/01/10 00:43:55;;;;;;;;;;;;;;;;;;5084915;28;19947;-84
2023/01/10 00:43:58;;;;;;;;;;;;;;;;;;5082025;28;19932;-84
2023/01/10 00:46:31;;;;;;;;;;;;;;;;;;5082634;28;20849;-85
2023/01/10 00:49:09;;;;;;;;;;;;;;;;;;5085902;28;19929;-84
2023/01/10 00:51:36;;;;;;;;;;;;;;;;;;5082701;28;20388;-84
2023/01/10 00:54:09;;;;;;;;;;;;;;;;;;5093468;28;19928;-84
2023/01/10 00:56:41;;;;;;;;;;;;;;;;;;5091806;28;20261;-84
2023/01/10 00:59:14;;;;;;;;;;;;;;;;;;5083678;28;19931;-85
2023/01/10 01:01:46;;;;;;;;;;;;;;;;;;5089036;28;19928;-84
2023/01/10 01:04:19;;;;;;;;;;;;;;;;;;5085218;28;19935;-83
2023/01/10 01:06:47;;;;;;;;;;;;;;;;;;5092447;28;19928;-84
2023/01/10 01:09:15;;;;;;;;;;;;;;;;;;5085225;28;19932;-83
2023/01/10 01:11:48;;;;;;;;;;;;;;;;;;5090881;28;19925;-84
2023/01/10 01:14:20;;;;;;;;;;;;;;;;;;5089027;28;19936;-84
2023/01/10 01:16:48;;;;;;;;;;;;;;;;;;5101454;28;20404;-83
2023/01/10 01:19:15;;;;;;;;;;;;;;;;;;5090804;28;20450;-82
2023/01/10 01:21:43;;;;;;;;;;;;;;;;;;5098683;28;20292;-84
2023/01/10 01:24:15;;;;;;;;;;;;;;;;;;5088641;28;20388;-83
2023/01/10 01:26:48;;;;;;;;;;;;;;;;;;5074296;28;19924;-84
2023/01/10 01:29:20;;;;;;;;;;;;;;;;;;5085920;28;19929;-84
2023/01/10 01:31:53;;;;;;;;;;;;;;;;;;5087742;28;19928;-84
2023/01/10 01:34:20;;;;;;;;;;;;;;;;;;5083506;28;19939;-84
2023/01/10 01:36:50;;;;;;;;;;;;;;;;;;5091051;28;19925;-84
2023/01/10 01:39:22;;;;;;;;;;;;;;;;;;5084591;28;19923;-84
2023/01/10 01:41:59;;;;;;;;;;;;;;;;;;5085815;28;19935;-83
2023/01/10 01:44:31;;;;;;;;;;;;;;;;;;5086857;28;19924;-83
2023/01/10 01:46:59;;;;;;;;;;;;;;;;;;5087795;28;19924;-84
2023/01/10 01:49:26;;;;;;;;;;;;;;;;;;5084657;28;19924;-85
2023/01/10 01:51:54;;;;;;;;;;;;;;;;;;5086681;28;19931;-83
2023/01/10 01:54:21;;;;;;;;;;;;;;;;;;5081948;28;19924;-84
2023/01/10 01:56:54;;;;;;;;;;;;;;;;;;5082242;28;20296;-83
2023/01/10 01:59:21;;;;;;;;;;;;;;;;;;5089874;28;19924;-83
2023/01/10 02:01:48;;;;;;;;;;;;;;;;;;5082038;28;19924;-83
2023/01/10 02:04:16;;;;;;;;;;;;;;;;;;5085335;28;19925;-84
2023/01/10 02:06:49;;;;;;;;;;;;;;;;;;5090773;28;19928;-84
2023/01/10 02:09:16;;;;;;;;;;;;;;;;;;5089987;28;19924;-84
2023/01/10 02:11:44;;;;;;;;;;;;;;;;;;5076701;28;19924;-83
2023/01/10 02:14:16;;;;;;;;;;;;;;;;;;5088666;28;19924;-83
2023/01/10 02:16:49;;;;;;;;;;;;;;;;;;5087373;28;19928;-83
2023/01/10 02:19:21;;;;;;;;;;;;;;;;;;5088742;28;19928;-84
2023/01/10 02:21:54;;;;;;;;;;;;;;;;;;5091629;28;19924;-83
2023/01/10 02:24:26;;;;;;;;;;;;;;;;;;5079752;28;20623;-84
2023/01/10 02:26:54;;;;;;;;;;;;;;;;;;5083194;28;19924;-84
2023/01/10 02:29:21;;;;;;;;;;;;;;;;;;5082482;28;19928;-84
2023/01/10 02:31:54;;;;;;;;;;;;;;;;;;5088461;28;20399;-82
2023/01/10 02:34:26;;;;;;;;;;;;;;;;;;5081640;28;19934;-85
2023/01/10 02:36:54;;;;;;;;;;;;;;;;;;5074340;28;19929;-84
2023/01/10 02:39:26;;;;;;;;;;;;;;;;;;5083057;28;19924;-83
2023/01/10 02:41:54;;;;;;;;;;;;;;;;;;5081339;28;19924;-84
2023/01/10 02:44:21;;;;;;;;;;;;;;;;;;5081425;28;20304;-85
2023/01/10 02:46:54;;;;;;;;;;;;;;;;;;5086322;28;19925;-84
2023/01/10 02:49:26;;;;;;;;;;;;;;;;;;5082935;28;20430;-84
2023/01/10 02:51:59;;;;;;;;;;;;;;;;;;5079899;28;19925;-84
2023/01/10 02:54:31;;;;;;;;;;;;;;;;;;5090299;28;19935;-83
2023/01/10 02:57:04;;;;;;;;;;;;;;;;;;5088221;28;19931;-83
2023/01/10 02:59:36;;;;;;;;;;;;;;;;;;5080896;28;19925;-84
2023/01/10 03:02:09;;;;;;;;;;;;;;;;;;5084941;28;20277;-85
2023/01/10 03:04:36;;;;;;;;;;;;;;;;;;5088897;28;19935;-84
2023/01/10 03:07:09;;;;;;;;;;;;;;;;;;5081484;28;19924;-85
2023/01/10 03:09:42;;;;;;;;;;;;;;;;;;5084062;28;19932;-84
2023/01/10 03:12:14;;;;;;;;;;;;;;;;;;5084344;28;19932;-84
2023/01/10 03:14:42;;;;;;;;;;;;;;;;;;5078975;28;19929;-84
2023/01/10 03:17:09;;;;;;;;;;;;;;;;;;5088089;28;19931;-83
2023/01/10 03:19:36;;;;;;;;;;;;;;;;;;5084088;28;19943;-84
2023/01/10 03:22:09;;;;;;;;;;;;;;;;;;5084497;28;19924;-84
2023/01/10 03:24:37;;;;;;;;;;;;;;;;;;5084866;28;19924;-85
2023/01/10 03:27:04;;;;;;;;;;;;;;;;;;5086357;28;19924;-84
2023/01/10 03:29:37;;;;;;;;;;;;;;;;;;5089159;28;19939;-84
2023/01/10 03:32:04;;;;;;;;;;;;;;;;;;5082039;28;19931;-85
2023/01/10 03:34:37;;;;;;;;;;;;;;;;;;5088746;28;19932;-84
2023/01/10 03:37:04;;;;;;;;;;;;;;;;;;5090504;28;19924;-84
2023/01/10 03:39:32;;;;;;;;;;;;;;;;;;5096063;28;19937;-84
2023/01/10 03:42:04;;;;;;;;;;;;;;;;;;5085174;28;19925;-83
2023/01/10 03:44:45;;;;;;;;;;;;;;;;;;5088170;28;19932;-84
2023/01/10 03:47:17;;;;;;;;;;;;;;;;;;5090649;28;19932;-84
2023/01/10 03:49:46;;;;;;;;;;;;;;;;;;5084135;28;19931;-84
2023/01/10 03:52:19;;;;;;;;;;;;;;;;;;5084823;28;19924;-84
2023/01/10 03:54:52;;;;;;;;;;;;;;;;;;5081330;28;19928;-83
2023/01/10 03:57:25;;;;;;;;;;;;;;;;;;5084498;28;19928;-85
2023/01/10 03:59:52;;;;;;;;;;;;;;;;;;5087086;28;19931;-84
2023/01/10 04:02:25;;;;;;;;;;;;;;;;;;5090210;28;19931;-84
2023/01/10 04:04:52;;;;;;;;;;;;;;;;;;5089708;28;20002;-84
2023/01/10 04:07:25;;;;;;;;;;;;;;;;;;5083442;28;20732;-85
2023/01/10 04:09:52;;;;;;;;;;;;;;;;;;5079636;28;20691;-85
2023/01/10 04:12:20;;;;;;;;;;;;;;;;;;5091222;28;20404;-84
2023/01/10 04:14:47;;;;;;;;;;;;;;;;;;5087704;28;19924;-84
2023/01/10 04:17:15;;;;;;;;;;;;;;;;;;5084594;28;20848;-83
2023/01/10 04:19:42;;;;;;;;;;;;;;;;;;5090056;28;19951;-83
2023/01/10 04:22:15;;;;;;;;;;;;;;;;;;5094684;28;19928;-84
2023/01/10 04:24:43;;;;;;;;;;;;;;;;;;5083875;28;19935;-85
2023/01/10 04:27:15;;;;;;;;;;;;;;;;;;5073343;28;19928;-85
2023/01/10 04:29:48;;;;;;;;;;;;;;;;;;5079986;28;20462;-85
2023/01/10 04:32:20;;;;;;;;;;;;;;;;;;5082758;28;19939;-85
2023/01/10 04:34:53;;;;;;;;;;;;;;;;;;5080728;28;19928;-84
2023/01/10 04:37:21;;;;;;;;;;;;;;;;;;5086827;28;19932;-84
2023/01/10 04:39:53;;;;;;;;;;;;;;;;;;5086338;28;19936;-85
2023/01/10 04:42:22;;;;;;;;;;;;;;;;;;5092254;28;19925;-84
2023/01/10 04:44:54;;;;;;;;;;;;;;;;;;5087641;28;19931;-84
2023/01/10 04:47:22;;;;;;;;;;;;;;;;;;5085965;28;20400;-85
2023/01/10 04:49:49;;;;;;;;;;;;;;;;;;5084428;28;19931;-85
2023/01/10 04:52:17;;;;;;;;;;;;;;;;;;5083921;28;19928;-85
2023/01/10 04:54:49;;;;;;;;;;;;;;;;;;5084803;28;19925;-85
2023/01/10 04:57:17;;;;;;;;;;;;;;;;;;5079934;28;19932;-84
2023/01/10 04:59:44;;;;;;;;;;;;;;;;;;5077925;28;19931;-85
2023/01/10 05:02:12;;;;;;;;;;;;;;;;;;5081714;28;19928;-84
2023/01/10 05:04:44;;;;;;;;;;;;;;;;;;5085807;28;19924;-85
2023/01/10 05:07:12;;;;;;;;;;;;;;;;;;5082389;28;19928;-84
2023/01/10 05:09:44;;;;;;;;;;;;;;;;;;5087238;28;19931;-84
2023/01/10 05:12:17;;;;;;;;;;;;;;;;;;5088209;28;20388;-85
2023/01/10 05:14:49;;;;;;;;;;;;;;;;;;5079179;28;20390;-85
2023/01/10 05:17:22;;;;;;;;;;;;;;;;;;5083342;28;19924;-85
2023/01/10 05:19:49;;;;;;;;;;;;;;;;;;5087974;28;20403;-84
2023/01/10 05:22:22;;;;;;;;;;;;;;;;;;5086039;28;20308;-84
2023/01/10 05:24:54;;;;;;;;;;;;;;;;;;5081283;28;20380;-84
2023/01/10 05:27:22;;;;;;;;;;;;;;;;;;5078911;28;19924;-85
2023/01/10 05:29:54;;;;;;;;;;;;;;;;;;5088913;28;20419;-85
2023/01/10 05:32:28;;;;;;;;;;;;;;;;;;5079109;28;19924;-84
2023/01/10 05:35:00;;;;;;;;;;;;;;;;;;5085310;28;19924;-84
2023/01/10 05:37:33;;;;;;;;;;;;;;;;;;5079093;28;19940;-84
2023/01/10 05:40:00;;;;;;;;;;;;;;;;;;5075511;28;19925;-84
2023/01/10 05:42:28;;;;;;;;;;;;;;;;;;5086535;28;19925;-85
2023/01/10 05:44:55;;;;;;;;;;;;;;;;;;5084350;28;19931;-84
2023/01/10 05:47:28;;;;;;;;;;;;;;;;;;5087353;28;19924;-85
2023/01/10 05:49:55;;;;;;;;;;;;;;;;;;5084957;28;20399;-84
2023/01/10 05:52:23;;;;;;;;;;;;;;;;;;5090571;28;19939;-84
2023/01/10 05:54:55;;;;;;;;;;;;;;;;;;5086618;28;19924;-86
2023/01/10 05:57:28;;;;;;;;;;;;;;;;;;5093573;28;20395;-84
2023/01/10 05:59:55;;;;;;;;;;;;;;;;;;5079485;28;19931;-85
2023/01/10 06:02:25;;;;;;;;;;;;;;;;;;5086003;28;20368;-84
2023/01/10 06:04:54;;;;;;;;;;;;;;;;;;5084883;28;19925;-84
2023/01/10 06:07:21;;;;;;;;;;;;;;;;;;5084618;28;19925;-84
2023/01/10 06:09:54;;;;;;;;;;;;;;;;;;5086317;28;20387;-84
2023/01/10 06:12:21;;;;;;;;;;;;;;;;;;5095907;28;20300;-84
2023/01/10 06:14:54;;;;;;;;;;;;;;;;;;5089680;28;19951;-85
2023/01/10 06:17:26;;;;;;;;;;;;;;;;;;5085854;28;19932;-84
2023/01/10 06:19:59;;;;;;;;;;;;;;;;;;5086163;28;20392;-84
2023/01/10 06:22:31;;;;;;;;;;;;;;;;;;5087051;28;19932;-83
2023/01/10 06:24:59;;;;;;;;;;;;;;;;;;5081680;28;20385;-84
2023/01/10 06:27:31;;;;;;;;;;;;;;;;;;5082752;28;19932;-83
2023/01/10 06:30:00;;;;;;;;;;;;;;;;;;5092353;28;19924;-85
2023/01/10 06:32:27;;;;;;;;;;;;;;;;;;5081763;28;19931;-83
2023/01/10 06:35:00;;;;;;;;;;;;;;;;;;5089711;28;19924;-86
2023/01/10 06:37:27;;;;;;;;;;;;;;;;;;5089826;28;19990;-84
2023/01/10 06:39:55;;;;;;;;;;;;;;;;;;5088167;28;19928;-82
2023/01/10 06:42:22;;;;;;;;;;;;;;;;;;5089361;28;19932;-84
2023/01/10 06:44:55;;;;;;;;;;;;;;;;;;5092896;28;19924;-84
2023/01/10 06:47:27;;;;;;;;;;;;;;;;;;5078243;28;20387;-86
2023/01/10 06:50:00;;;;;;;;;;;;;;;;;;5082111;28;19924;-86
2023/01/10 06:52:28;;;;;;;;;;;;;;;;;;5084813;28;19948;-85
2023/01/10 06:54:55;;;;;;;;;;;;;;;;;;5088968;28;20393;-84
2023/01/10 06:57:23;;;;;;;;;;;;;;;;;;5090805;28;19924;-84
2023/01/10 06:59:50;;;;;;;;;;;;;;;;;;5090032;28;19924;-87
2023/01/10 07:02:18;;;;;;;;;;;;;;;;;;5086395;28;19924;-86
2023/01/10 07:04:50;;;;;;;;;;;;;;;;;;5086081;28;19931;-87
2023/01/10 07:07:18;;;;;;;;;;;;;;;;;;5083857;28;20273;-85
2023/01/10 07:09:50;;;;;;;;;;;;;;;;;;5087185;28;20403;-84
2023/01/10 07:12:23;;;;;;;;;;;;;;;;;;5084049;28;20552;-84
2023/01/10 07:14:50;;;;;;;;;;;;;;;;;;5090806;28;19924;-83
2023/01/10 07:17:18;;;;;;;;;;;;;;;;;;5091072;28;19928;-85
2023/01/10 07:19:50;;;;;;;;;;;;;;;;;;5083473;28;20285;-85
2023/01/10 07:22:18;;;;;;;;;;;;;;;;;;5088707;28;19928;-84
2023/01/10 07:24:45;;;;;;;;;;;;;;;;;;5088565;28;19935;-84
2023/01/10 07:27:13;;;;;;;;;;;;;;;;;;5088593;28;19928;-84
2023/01/10 07:29:45;;;;;;;;;;;;;;;;;;5086874;28;20376;-84
2023/01/10 07:32:18;;;;;;;;;;;;;;;;;;5093423;28;19924;-83
2023/01/10 07:34:50;;;;;;;;;;;;;;;;;;5093397;28;19935;-84
2023/01/10 07:37:18;;;;;;;;;;;;;;;;;;5085305;28;19928;-84
2023/01/10 07:39:45;;;;;;;;;;;;;;;;;;5092578;28;20379;-84
2023/01/10 07:42:18;;;;;;;;;;;;;;;;;;5088248;28;19931;-85
2023/01/10 07:44:50;;;;;;;;;;;;;;;;;;5087785;28;20300;-84
2023/01/10 07:47:19;;;;;;;;;;;;;;;;;;5083167;28;20143;-84
2023/01/10 07:49:47;;;;;;;;;;;;;;;;;;5084079;28;20414;-84
2023/01/10 07:52:15;;;;;;;;;;;;;;;;;;5090511;28;20308;-84
2023/01/10 07:54:42;;;;;;;;;;;;;;;;;;5086050;28;19931;-83
2023/01/10 07:57:10;;;;;;;;;;;;;;;;;;5096213;28;19931;-84
2023/01/10 07:59:42;;;;;;;;;;;;;;;;;;5082420;28;19924;-83
2023/01/10 08:02:15;;;;;;;;;;;;;;;;;;5093359;28;19939;-84
2023/01/10 08:04:47;;;;;;;;;;;;;;;;;;5079352;28;19932;-83
2023/01/10 08:07:15;;;;;;;;;;;;;;;;;;5078625;28;19932;-84
2023/01/10 08:09:42;;;;;;;;;;;;;;;;;;5080233;28;19947;-82
2023/01/10 08:12:10;;;;;;;;;;;;;;;;;;5069459;28;19943;-82
2023/01/10 08:14:37;;;;;;;;;;;;;;;;;;5069488;28;20391;-83
2023/01/10 08:17:05;;;;;;;;;;;;;;;;;;5068184;28;19938;-83
2023/01/10 08:19:37;;;;;;;;;;;;;;;;;;5070247;28;20315;-83
2023/01/10 08:22:10;;;;;;;;;;;;;;;;;;5071962;28;19927;-83
2023/01/10 08:24:37;;;;;;;;;;;;;;;;;;5069675;28;20002;-83
2023/01/10 08:27:10;;;;;;;;;;;;;;;;;;5071018;28;19932;-84
2023/01/10 08:29:42;;;;;;;;;;;;;;;;;;5071894;28;19940;-85
2023/01/10 08:32:10;;;;;;;;;;;;;;;;;;5073140;28;19936;-83
2023/01/10 08:34:37;;;;;;;;;;;;;;;;;;5073096;28;19931;-83
2023/01/10 08:37:10;;;;;;;;;;;;;;;;;;5068262;28;19932;-84
2023/01/10 08:39:43;;;;;;;;;;;;;;;;;;5072665;28;19932;-82
2023/01/10 08:42:17;;;;;;;;;;;;;;;;;;5071156;28;19939;-85
2023/01/10 08:44:45;;;;;;;;;;;;;;;;;;5074854;28;19932;-84
2023/01/10 08:47:12;;;;;;;;;;;;;;;;;;5068567;28;19932;-83
2023/01/10 08:49:45;;;;;;;;;;;;;;;;;;5072905;28;20318;-82
2023/01/10 08:52:18;;;;;;;;;;;;;;;;;;5069500;28;19928;-84
2023/01/10 08:54:51;;;;;;;;;;;;;;;;;;5071432;28;19932;-83
2023/01/10 08:57:18;;;;;;;;;;;;;;;;;;5065506;28;19928;-84
2023/01/10 08:59:51;;;;;;;;;;;;;;;;;;5068402;28;20516;-84
2023/01/10 09:02:19;;;;;;;;;;;;;;;;;;5062322;28;19954;-83
2023/01/10 09:04:46;;;;;;;;;;;;;;;;;;5063643;28;19932;-83
2023/01/10 09:07:14;;;;;;;;;;;;;;;;;;5060778;28;19935;-84
2023/01/10 09:09:41;;;;;;;;;;;;;;;;;;5074437;28;19932;-84
2023/01/10 09:14:59;;;;;;;;;;;;;;;;;;5071720;28;20455;-84
2023/01/10 09:17:27;;;;;;;;;;;;;;;;;;5071283;28;19932;-83
2023/01/10 09:19:55;;;;;;;;;;;;;;;;;;5075747;28;19932;-82
2023/01/10 09:22:28;;;;;;;;;;;;;;;;;;5062829;28;19932;-84
2023/01/10 09:24:55;;;;;;;;;;;;;;;;;;5067360;28;19932;-84
2023/01/10 09:27:23;;;;;;;;;;;;;;;;;;5064082;28;19932;-83
2023/01/10 09:29:51;;;;;;;;;;;;;;;;;;5067087;28;19932;-83
2023/01/10 09:32:18;;;;;;;;;;;;;;;;;;5075460;28;20380;-82
2023/01/10 09:34:51;;;;;;;;;;;;;;;;;;5062578;28;19932;-84
2023/01/10 09:37:23;;;;;;;;;;;;;;;;;;5063937;28;20236;-84
2023/01/10 09:39:51;;;;;;;;;;;;;;;;;;5065266;28;20276;-81
2023/01/10 09:42:19;;;;;;;;;;;;;;;;;;5072632;28;19943;-83
2023/01/10 09:44:52;;;;;;;;;;;;;;;;;;5057307;28;20366;-84
2023/01/10 09:47:24;;;;;;;;;;;;;;;;;;5065878;28;19943;-85
2023/01/10 09:49:57;;;;;;;;;;;;;;;;;;5075456;28;19939;-83
2023/01/10 09:52:29;;;;;;;;;;;;;;;;;;5067534;28;19932;-82
2023/01/10 09:54:57;;;;;;;;;;;;;;;;;;5068434;28;20308;-83
2023/01/10 09:57:29;;;;;;;;;;;;;;;;;;5068466;28;19932;-83
2023/01/10 09:59:57;;;;;;;;;;;;;;;;;;5064229;28;19932;-82
2023/01/10 10:02:34;;;;;;;;;;;;;;;;;;5071963;28;19932;-84
2023/01/10 10:05:02;;;;;;;;;;;;;;;;;;5068667;28;19932;-83
2023/01/10 10:07:29;;;;;;;;;;;;;;;;;;5065691;28;19936;-83
2023/01/10 10:10:02;;;;;;;;;;;;;;;;;;5061841;28;19932;-83
2023/01/10 10:12:30;;;;;;;;;;;;;;;;;;5066031;28;20620;-84
2023/01/10 10:15:02;;;;;;;;;;;;;;;;;;5066639;28;19943;-82
2023/01/10 10:17:30;;;;;;;;;;;;;;;;;;5066769;28;19939;-83
2023/01/10 10:20:02;;;;;;;;;;;;;;;;;;5070534;28;19943;-83
2023/01/10 10:22:30;;;;;;;;;;;;;;;;;;5069881;28;19939;-83
2023/01/10 10:25:03;;;;;;;;;;;;;;;;;;5064811;28;19932;-82
2023/01/10 10:27:35;;;;;;;;;;;;;;;;;;5068514;28;19932;-83
2023/01/10 10:30:03;;;;;;;;;;;;;;;;;;5067090;28;19924;-84
2023/01/10 10:32:30;;;;;;;;;;;;;;;;;;5064918;28;19932;-82
2023/01/10 10:34:58;;;;;;;;;;;;;;;;;;5065434;28;19932;-82
2023/01/10 10:37:32;;;;;;;;;;;;;;;;;;5063655;28;20585;-83
2023/01/10 10:39:59;;;;;;;;;;;;;;;;;;5082931;28;19932;-84
2023/01/10 10:42:27;;;;;;;;;;;;;;;;;;5071633;28;20380;-85
2023/01/10 10:44:54;;;;;;;;;;;;;;;;;;5069315;28;19939;-84
2023/01/10 10:47:27;;;;;;;;;;;;;;;;;;5067356;28;19932;-85
2023/01/10 10:49:59;;;;;;;;;;;;;;;;;;5079477;28;19931;-85
2023/01/10 10:52:33;;;;;;;;;;;;;;;;;;5065578;28;19944;-85
2023/01/10 10:55:01;;;;;;;;;;;;;;;;;;5065189;28;19928;-85
2023/01/10 10:57:28;;;;;;;;;;;;;;;;;;5066364;28;21265;-85
2023/01/10 10:59:56;;;;;;;;;;;;;;;;;;5063226;28;20385;-85
2023/01/10 11:02:23;;;;;;;;;;;;;;;;;;5064123;28;19982;-85
2023/01/10 11:04:55;;;;;;;;;;;;;;;;;;5061626;28;20423;-84
2023/01/10 11:07:28;;;;;;;;;;;;;;;;;;5058646;28;19932;-85
2023/01/10 11:10:02;;;;;;;;;;;;;;;;;;5073654;28;19932;-84
2023/01/10 11:12:35;;;;;;;;;;;;;;;;;;5064675;28;19932;-84
2023/01/10 11:15:07;;;;;;;;;;;;;;;;;;5072683;28;19936;-84
2023/01/10 11:17:40;;;;;;;;;;;;;;;;;;5069264;28;19932;-85
2023/01/10 11:20:13;;;;;;;;;;;;;;;;;;5064869;28;19931;-85
2023/01/10 11:22:41;;;;;;;;;;;;;;;;;;5062040;28;19939;-83
2023/01/10 11:25:13;;;;;;;;;;;;;;;;;;5067520;28;19936;-85
2023/01/10 11:27:41;;;;;;;;;;;;;;;;;;5068278;28;19939;-84
2023/01/10 11:30:08;;;;;;;;;;;;;;;;;;5070769;28;19928;-84
2023/01/10 11:32:36;;;;;;;;;;;;;;;;;;5071025;28;19939;-86
2023/01/10 11:35:08;;;;;;;;;;;;;;;;;;5073439;28;19932;-84
2023/01/10 11:37:40;;;;;;;;;;;;;;;;;;5063231;28;19932;-83
2023/01/10 11:40:08;;;;;;;;;;;;;;;;;;5069029;28;19932;-85
2023/01/10 11:42:35;;;;;;;;;;;;;;;;;;5071268;28;20286;-84
2023/01/10 11:45:08;;;;;;;;;;;;;;;;;;5071276;28;21272;-85
2023/01/10 11:47:40;;;;;;;;;;;;;;;;;;5061746;28;19928;-83
2023/01/10 11:50:13;;;;;;;;;;;;;;;;;;5068005;28;21328;-85
2023/01/10 11:52:40;;;;;;;;;;;;;;;;;;5071097;28;19935;-85
2023/01/10 11:55:08;;;;;;;;;;;;;;;;;;5066642;28;19932;-87
2023/01/10 11:57:41;;;;;;;;;;;;;;;;;;5070500;28;19955;-83
2023/01/10 12:00:08;;;;;;;;;;;;;;;;;;5072620;28;19940;-84
2023/01/10 12:02:42;;;;;;;;;;;;;;;;;;5062751;28;19954;-85
2023/01/10 12:05:14;;;;;;;;;;;;;;;;;;5060936;28;19939;-84
2023/01/10 12:07:42;;;;;;;;;;;;;;;;;;5061229;28;19939;-86
2023/01/10 12:10:14;;;;;;;;;;;;;;;;;;5064119;28;19946;-85
2023/01/10 12:12:42;;;;;;;;;;;;;;;;;;5062185;28;19939;-85
2023/01/10 12:15:14;;;;;;;;;;;;;;;;;;5061817;28;19932;-83
2023/01/10 12:17:42;;;;;;;;;;;;;;;;;;5063175;28;19943;-85
2023/01/10 12:20:14;;;;;;;;;;;;;;;;;;5061971;28;19974;-83
2023/01/10 12:22:47;;;;;;;;;;;;;;;;;;5064960;28;19975;-84
2023/01/10 12:25:15;;;;;;;;;;;;;;;;;;5068057;28;19932;-84
2023/01/10 12:27:49;;;;;;;;;;;;;;;;;;5066054;28;19939;-84
2023/01/10 12:30:16;;;;;;;;;;;;;;;;;;5074361;28;20081;-84
2023/01/10 12:32:44;;;;;;;;;;;;;;;;;;5070620;28;19932;-86
2023/01/10 12:35:16;;;;;;;;;;;;;;;;;;5070230;28;19928;-84
2023/01/10 12:37:44;;;;;;;;;;;;;;;;;;5076451;28;19955;-86
2023/01/10 12:40:11;;;;;;;;;;;;;;;;;;5068885;28;19967;-85
2023/01/10 12:45:29;;;;;;;;;;;;;;;;;;5072758;28;19935;-83
2023/01/10 12:48:02;;;;;;;;;;;;;;;;;;5069621;28;20525;-83
2023/01/10 12:50:34;;;;;;;;;;;;;;;;;;5074024;28;19935;-84
2023/01/10 12:53:07;;;;;;;;;;;;;;;;;;5067621;28;19938;-85
2023/01/10 12:55:35;;;;;;;;;;;;;;;;;;5074817;28;19932;-86
2023/01/10 12:58:02;;;;;;;;;;;;;;;;;;5073958;28;21630;-85
2023/01/10 13:00:30;;;;;;;;;;;;;;;;;;5073995;28;19932;-85
2023/01/10 13:02:57;;;;;;;;;;;;;;;;;;5070234;28;19939;-86
2023/01/10 13:05:25;;;;;;;;;;;;;;;;;;5070059;28;19939;-87
2023/01/10 13:07:52;;;;;;;;;;;;;;;;;;5074141;28;19930;-84
2023/01/10 13:10:25;;;;;;;;;;;;;;;;;;5072021;28;19939;-85
2023/01/10 13:12:57;;;;;;;;;;;;;;;;;;5069084;28;19931;-84
2023/01/10 13:15:30;;;;;;;;;;;;;;;;;;5072534;28;19939;-85
2023/01/10 13:18:02;;;;;;;;;;;;;;;;;;5076416;28;19932;-86
2023/01/10 13:20:35;;;;;;;;;;;;;;;;;;5075257;28;19932;-87
2023/01/10 13:23:08;;;;;;;;;;;;;;;;;;5073832;28;19939;-83
2023/01/10 13:25:40;;;;;;;;;;;;;;;;;;5074552;28;20280;-84
2023/01/10 13:28:13;;;;;;;;;;;;;;;;;;5073167;28;19939;-83
2023/01/10 13:30:46;;;;;;;;;;;;;;;;;;5072020;28;19932;-85
2023/01/10 13:33:13;;;;;;;;;;;;;;;;;;5069048;28;20546;-83
2023/01/10 13:35:47;;;;;;;;;;;;;;;;;;5071327;28;19939;-87
2023/01/10 13:38:15;;;;;;;;;;;;;;;;;;5073540;28;19942;-83
2023/01/10 13:40:42;;;;;;;;;;;;;;;;;;5076629;28;19932;-86
2023/01/10 13:43:18;;;;;;;;;;;;;;;;;;5072916;28;19932;-83
2023/01/10 13:45:50;;;;;;;;;;;;;;;;;;5074151;28;19932;-83
2023/01/10 13:48:23;;;;;;;;;;;;;;;;;;5066936;28;19932;-84
2023/01/10 13:50:50;;;;;;;;;;;;;;;;;;5071392;28;20296;-88
2023/01/10 13:53:23;;;;;;;;;;;;;;;;;;5070045;28;20292;-86
2023/01/10 13:55:55;;;;;;;;;;;;;;;;;;5055927;28;19943;-84
2023/01/10 14:02:27;;;;;;;;;;;;;;;;;;5068214;28;19939;-83
2023/01/10 14:04:01;;;;;;;;;;;;;;;;;;5074787;28;19955;-84
2023/01/10 14:06:28;;;;;;;;;;;;;;;;;;5062393;28;20308;-86
2023/01/10 14:08:56;;;;;;;;;;;;;;;;;;5068816;28;19932;-84
2023/01/10 14:11:28;;;;;;;;;;;;;;;;;;5069396;28;19954;-83
2023/01/10 14:14:01;;;;;;;;;;;;;;;;;;5070595;28;20482;-84
2023/01/10 14:16:28;;;;;;;;;;;;;;;;;;5069161;28;19932;-85
2023/01/10 14:18:56;;;;;;;;;;;;;;;;;;5064100;28;19932;-84
2023/01/10 14:21:23;;;;;;;;;;;;;;;;;;5068821;28;19932;-83
2023/01/10 14:23:51;;;;;;;;;;;;;;;;;;5070451;28;19932;-87
2023/01/10 14:26:23;;;;;;;;;;;;;;;;;;5063398;28;19932;-83
2023/01/10 14:28:51;;;;;;;;;;;;;;;;;;5067104;28;19932;-85
2023/01/10 14:31:24;;;;;;;;;;;;;;;;;;5068042;28;20108;-84
2023/01/10 14:33:51;;;;;;;;;;;;;;;;;;5067851;28;19932;-84
2023/01/10 14:36:24;;;;;;;;;;;;;;;;;;5064638;28;19939;-84
2023/01/10 14:38:56;;;;;;;;;;;;;;;;;;5070644;28;19939;-85
2023/01/10 14:41:24;;;;;;;;;;;;;;;;;;5068503;28;19932;-87
2023/01/10 14:43:52;;;;;;;;;;;;;;;;;;5061247;28;19948;-84
2023/01/10 14:46:19;;;;;;;;;;;;;;;;;;5064991;28;19932;-87
2023/01/10 14:48:53;;;;;;;;;;;;;;;;;;5066634;28;19932;-84
2023/01/10 14:51:26;;;;;;;;;;;;;;;;;;5069010;28;19939;-86
2023/01/10 14:53:53;;;;;;;;;;;;;;;;;;5069860;28;19932;-83
2023/01/10 14:56:26;;;;;;;;;;;;;;;;;;5056526;28;19932;-83
2023/01/10 14:58:59;;;;;;;;;;;;;;;;;;5066431;28;19928;-85
2023/01/10 15:01:32;;;;;;;;;;;;;;;;;;5074411;28;21307;-87
2023/01/10 15:04:01;;;;;;;;;;;;;;;;;;5068226;28;19943;-87
2023/01/10 15:06:34;;;;;;;;;;;;;;;;;;5061202;28;19928;-85
2023/01/10 15:09:08;;;;;;;;;;;;;;;;;;5065304;28;19932;-83
2023/01/10 15:11:35;;;;;;;;;;;;;;;;;;5069782;28;19932;-84
2023/01/10 15:14:09;;;;;;;;;;;;;;;;;;5067837;28;20387;-85
2023/01/10 15:16:37;;;;;;;;;;;;;;;;;;5068925;28;19939;-86
2023/01/10 15:19:10;;;;;;;;;;;;;;;;;;5072478;28;19928;-87
2023/01/10 15:21:37;;;;;;;;;;;;;;;;;;5071243;28;19932;-86
2023/01/10 15:24:10;;;;;;;;;;;;;;;;;;5071313;28;20446;-89
2023/01/10 15:26:37;;;;;;;;;;;;;;;;;;5072249;28;19943;-87
2023/01/10 15:29:05;;;;;;;;;;;;;;;;;;5069558;28;19947;-84
2023/01/10 15:31:37;;;;;;;;;;;;;;;;;;5072411;28;19932;-86
2023/01/10 15:34:10;;;;;;;;;;;;;;;;;;5072214;28;19932;-87
2023/01/10 15:36:37;;;;;;;;;;;;;;;;;;5068320;28;19932;-87
2023/01/10 15:39:10;;;;;;;;;;;;;;;;;;5068549;28;19932;-86
2023/01/10 15:41:37;;;;;;;;;;;;;;;;;;5076616;28;20300;-87
2023/01/10 15:44:05;;;;;;;;;;;;;;;;;;5083679;28;19932;-85
2023/01/10 15:46:34;;;;;;;;;;;;;;;;;;5071937;28;19939;-89
2023/01/10 15:49:08;;;;;;;;;;;;;;;;;;5066776;28;20372;-86
2023/01/10 15:51:35;;;;;;;;;;;;;;;;;;5066531;28;19935;-83
2023/01/10 15:54:03;;;;;;;;;;;;;;;;;;5065961;28;20809;-83
2023/01/10 15:56:31;;;;;;;;;;;;;;;;;;5064236;28;19932;-87
2023/01/10 15:58:58;;;;;;;;;;;;;;;;;;5074215;28;20393;-86
2023/01/10 16:01:31;;;;;;;;;;;;;;;;;;5070614;28;20505;-88
2023/01/10 16:03:58;;;;;;;;;;;;;;;;;;5065730;28;19932;-85
2023/01/10 16:06:26;;;;;;;;;;;;;;;;;;5067889;28;19932;-84
2023/01/10 16:08:53;;;;;;;;;;;;;;;;;;5061614;28;19932;-86
2023/01/10 16:13:25;;;;;;;;;;;;;;;;;;5064555;28;19938;-88
2023/01/10 16:14:12;;;;;;;;;;;;;;;;;;5067711;28;19932;-88
2023/01/10 16:16:40;;;;;;;;;;;;;;;;;;5073105;28;19935;-83
2023/01/10 16:19:07;;;;;;;;;;;;;;;;;;5073711;28;19932;-87
2023/01/10 16:21:40;;;;;;;;;;;;;;;;;;5067809;28;19932;-86
2023/01/10 16:24:08;;;;;;;;;;;;;;;;;;5064587;28;19959;-85
2023/01/10 16:26:35;;;;;;;;;;;;;;;;;;5066335;28;19939;-87
2023/01/10 16:29:03;;;;;;;;;;;;;;;;;;5072872;28;19939;-85
2023/01/10 16:31:35;;;;;;;;;;;;;;;;;;5070567;28;19935;-86
2023/01/10 16:34:08;;;;;;;;;;;;;;;;;;5068511;28;19939;-89
2023/01/10 16:36:41;;;;;;;;;;;;;;;;;;5064602;28;19924;-86
2023/01/10 16:39:14;;;;;;;;;;;;;;;;;;5064640;28;19943;-87
2023/01/10 16:44:32;;;;;;;;;;;;;;;;;;5065685;28;19928;-88
2023/01/10 16:47:04;;;;;;;;;;;;;;;;;;5068237;28;20418;-86
2023/01/10 16:49:37;;;;;;;;;;;;;;;;;;5066876;28;19938;-83
2023/01/10 16:52:09;;;;;;;;;;;;;;;;;;5065781;28;19931;-85
2023/01/10 16:54:42;;;;;;;;;;;;;;;;;;5064236;28;20170;-87
2023/01/10 16:57:16;;;;;;;;;;;;;;;;;;5042693;28;21024;-86
2023/01/10 16:59:44;;;;;;;;;;;;;;;;;;5067955;28;19932;-86
2023/01/10 17:02:16;;;;;;;;;;;;;;;;;;5070760;28;19932;-85
2023/01/10 17:04:44;;;;;;;;;;;;;;;;;;5071652;28;19932;-84
2023/01/10 17:07:11;;;;;;;;;;;;;;;;;;5071603;28;19932;-84
2023/01/10 17:09:39;;;;;;;;;;;;;;;;;;5068923;28;19943;-86
2023/01/10 17:12:11;;;;;;;;;;;;;;;;;;5067673;28;19932;-84
2023/01/10 17:14:39;;;;;;;;;;;;;;;;;;5062904;28;19932;-87
2023/01/10 17:17:06;;;;;;;;;;;;;;;;;;5070298;28;19939;-87